Time;durP1;ratioP1;P1;durP2;ratioP2;P2;SDS_P1;SDS_P2;PMS_P1;PMS_P2;Temp;Humidity;BMP_temperature;BMP_pressure;BME280_temperature;BME280_humidity;BME280_pressure;Samples;Min_cycle;Max_cycle;Signal;HPM_P1;HPM_P2
2022/11/08 00:01:33;;;;;;;8.48;1.50;;;;;;;12.74;100.00;100357.66;5222578;28;20024;-77
2022/11/08 00:04:06;;;;;;;6.60;1.27;;;;;;;12.76;100.00;100361.06;5218607;28;20055;-77
2022/11/08 00:15:06;;;;;;;8.82;1.50;;;;;;;12.64;100.00;100364.25;5218885;28;20119;-77
2022/11/08 00:17:36;;;;;;;9.00;1.80;;;;;;;12.54;100.00;100360.38;5221437;28;20027;-77
2022/11/08 00:20:07;;;;;;;6.05;1.50;;;;;;;12.44;100.00;100361.72;5222515;28;20021;-77
2022/11/08 00:22:38;;;;;;;7.35;1.83;;;;;;;12.47;100.00;100371.22;5221837;28;20406;-77
2022/11/08 00:25:09;;;;;;;7.68;1.92;;;;;;;12.48;100.00;100373.75;5221850;28;20032;-77
2022/11/08 00:27:39;;;;;;;6.85;1.73;;;;;;;12.44;100.00;100381.84;5220039;28;20028;-77
2022/11/08 00:30:10;;;;;;;8.83;1.97;;;;;;;12.37;100.00;100378.66;5221646;28;20094;-77
2022/11/08 00:32:40;;;;;;;10.50;2.17;;;;;;;12.41;100.00;100374.97;5221418;28;20327;-77
2022/11/08 00:35:10;;;;;;;8.98;1.83;;;;;;;12.41;100.00;100377.59;5221374;28;20029;-77
2022/11/08 00:37:40;;;;;;;8.10;1.98;;;;;;;12.35;100.00;100375.25;5220939;28;20029;-77
2022/11/08 00:40:11;;;;;;;10.07;2.07;;;;;;;12.38;100.00;100376.88;5219930;28;20037;-76
2022/11/08 00:42:41;;;;;;;8.32;2.75;;;;;;;12.33;100.00;100379.69;5221220;28;20324;-77
2022/11/08 00:45:12;;;;;;;8.02;2.13;;;;;;;12.23;100.00;100373.19;5221655;28;20053;-77
2022/11/08 00:47:42;;;;;;;7.15;1.63;;;;;;;12.22;100.00;100366.25;5220993;28;20029;-77
2022/11/08 00:50:12;;;;;;;8.68;1.80;;;;;;;12.22;100.00;100371.50;5220393;28;20025;-77
2022/11/08 00:52:42;;;;;;;7.15;1.67;;;;;;;12.24;100.00;100372.28;5220856;28;20036;-77
2022/11/08 00:55:13;;;;;;;8.15;2.03;;;;;;;12.14;100.00;100378.84;5219159;28;20119;-77
2022/11/08 00:57:43;;;;;;;9.85;2.10;;;;;;;12.11;100.00;100378.97;5220668;28;20024;-76
2022/11/08 01:00:14;;;;;;;9.00;2.40;;;;;;;12.21;100.00;100375.03;5220950;28;20083;-77
2022/11/08 01:02:44;;;;;;;10.45;2.40;;;;;;;12.23;100.00;100378.44;5218301;28;20100;-77
2022/11/08 01:05:14;;;;;;;6.72;1.95;;;;;;;12.15;100.00;100369.22;5219984;28;20549;-77
2022/11/08 01:07:44;;;;;;;10.65;2.00;;;;;;;12.13;100.00;100376.31;5216190;28;20316;-77
2022/11/08 01:10:15;;;;;;;9.43;2.10;;;;;;;12.09;100.00;100366.88;5220566;28;20031;-77
2022/11/08 01:12:45;;;;;;;9.32;2.85;;;;;;;11.95;100.00;100370.09;5221000;28;20029;-76
2022/11/08 01:15:16;;;;;;;7.38;1.90;;;;;;;12.06;100.00;100380.09;5220903;28;20047;-77
2022/11/08 01:17:46;;;;;;;8.15;2.08;;;;;;;12.05;100.00;100376.66;5220629;28;20129;-76
2022/11/08 01:20:16;;;;;;;10.93;2.47;;;;;;;12.06;100.00;100372.25;5220250;28;20031;-77
2022/11/08 01:22:47;;;;;;;7.57;1.98;;;;;;;11.94;100.00;100378.03;5220767;28;20528;-77
2022/11/08 01:25:17;;;;;;;10.80;2.67;;;;;;;11.87;100.00;100374.84;5220051;28;20504;-77
2022/11/08 01:27:47;;;;;;;15.10;2.85;;;;;;;11.84;100.00;100377.59;5221302;28;20449;-77
2022/11/08 01:30:17;;;;;;;9.02;2.40;;;;;;;11.89;100.00;100378.25;5208118;28;20064;-77
2022/11/08 01:32:48;;;;;;;9.65;2.65;;;;;;;11.95;100.00;100372.72;5220074;28;20052;-77
2022/11/08 01:35:18;;;;;;;10.68;2.58;;;;;;;11.85;100.00;100373.19;5220129;28;20514;-77
2022/11/08 01:37:50;;;;;;;9.18;2.60;;;;;;;11.85;100.00;100374.06;5220282;28;20035;-77
2022/11/08 01:40:20;;;;;;;9.27;2.03;;;;;;;11.85;100.00;100368.81;5220636;28;20036;-77
2022/11/08 01:42:52;;;;;;;8.95;2.10;;;;;;;11.84;100.00;100380.22;5220789;28;20259;-77
2022/11/08 01:45:59;;;;;;;10.73;2.42;;;;;;;11.81;100.00;100375.09;5220280;28;20035;-77
2022/11/08 01:48:30;;;;;;;6.85;1.80;;;;;;;11.77;100.00;100368.28;5221081;28;20032;-77
2022/11/08 01:51:00;;;;;;;11.00;1.73;;;;;;;11.89;100.00;100356.44;5224653;28;20025;-77
2022/11/08 01:53:31;;;;;;;8.65;2.33;;;;;;;11.80;100.00;100357.69;5224655;28;20021;-77
2022/11/08 01:56:01;;;;;;;7.07;2.10;;;;;;;11.82;100.00;100353.22;5223231;28;20033;-77
2022/11/08 01:58:36;;;;;;;12.18;2.85;;;;;;;11.89;100.00;100359.91;5219942;28;20529;-77
2022/11/08 02:01:06;;;;;;;10.13;2.00;;;;;;;11.84;100.00;100358.41;5224510;28;20043;-77
2022/11/08 02:03:38;;;;;;;8.93;2.17;;;;;;;11.85;100.00;100360.97;5222877;28;20465;-77
2022/11/08 02:06:09;;;;;;;10.30;2.40;;;;;;;11.79;100.00;100361.22;5222398;28;20506;-77
2022/11/08 02:08:41;;;;;;;8.70;2.08;;;;;;;11.69;100.00;100365.19;5223713;28;20029;-77
2022/11/08 02:11:15;;;;;;;11.70;2.22;;;;;;;11.73;100.00;100365.88;5224923;28;20387;-77
2022/11/08 02:13:45;;;;;;;6.35;1.73;;;;;;;11.71;100.00;100363.34;5224092;28;20490;-77
2022/11/08 02:16:16;;;;;;;8.43;1.60;;;;;;;11.65;100.00;100366.19;5224351;28;20042;-77
2022/11/08 02:18:47;;;;;;;8.32;2.00;;;;;;;11.67;100.00;100358.28;5223983;28;20107;-76
2022/11/08 02:21:48;;;;;;;10.20;2.83;;;;;;;11.68;100.00;100363.47;5224801;28;20396;-77
2022/11/08 02:24:18;;;;;;;10.00;2.03;;;;;;;11.60;100.00;100362.94;5221086;28;20120;-77
2022/11/08 02:26:51;;;;;;;7.63;1.80;;;;;;;11.59;100.00;100358.63;5223975;28;20151;-77
2022/11/08 02:29:27;;;;;;;6.28;1.75;;;;;;;11.63;100.00;100351.50;5222552;28;20060;-77
2022/11/08 02:31:58;;;;;;;;;;;;;;;11.59;100.00;100358.63;5224479;28;20036;-77
2022/11/08 02:34:33;;;;;;;5.88;2.00;;;;;;;11.57;100.00;100357.84;5222947;28;19928;-77
2022/11/08 02:37:05;;;;;;;8.95;1.77;;;;;;;11.54;100.00;100349.22;5219590;28;20029;-77
2022/11/08 02:39:35;;;;;;;5.55;1.30;;;;;;;11.51;100.00;100354.59;5223279;28;20403;-76
2022/11/08 02:42:06;;;;;;;7.40;1.75;;;;;;;11.58;100.00;100356.09;5223764;28;20032;-77
2022/11/08 02:44:36;;;;;;;6.95;1.45;;;;;;;11.52;100.00;100351.94;5223301;28;20040;-77
2022/11/08 02:47:06;;;;;;;3.47;1.25;;;;;;;11.47;100.00;100353.88;5222834;28;20108;-77
2022/11/08 02:49:36;;;;;;;8.77;1.67;;;;;;;11.55;100.00;100351.78;5223231;28;20029;-77
2022/11/08 02:52:07;;;;;;;7.78;1.65;;;;;;;11.42;100.00;100355.84;5223388;28;20037;-77
2022/11/08 02:54:37;;;;;;;6.80;1.60;;;;;;;11.46;100.00;100352.16;5223292;28;20486;-77
2022/11/08 02:57:08;;;;;;;5.53;1.48;;;;;;;11.38;100.00;100349.03;5222903;28;20091;-77
2022/11/08 02:59:38;;;;;;;7.82;1.50;;;;;;;11.42;100.00;100347.16;5221556;28;20055;-77
2022/11/08 03:02:08;;;;;;;4.25;1.13;;;;;;;11.49;100.00;100346.84;5220311;28;20028;-77
2022/11/08 03:04:39;;;;;;;7.25;1.52;;;;;;;11.37;100.00;100349.97;5222607;28;20082;-77
2022/11/08 03:07:09;;;;;;;8.32;1.58;;;;;;;11.39;100.00;100348.13;5222262;28;20065;-77
2022/11/08 03:09:39;;;;;;;6.78;1.40;;;;;;;11.07;100.00;100347.78;5222419;28;20031;-77
2022/11/08 03:12:09;;;;;;;6.25;1.50;;;;;;;11.05;100.00;100346.97;5222933;28;20029;-76
2022/11/08 03:14:40;;;;;;;6.25;1.13;;;;;;;10.70;100.00;100349.31;5222897;28;20025;-77
2022/11/08 03:17:10;;;;;;;7.13;1.23;;;;;;;10.59;100.00;100348.88;5222886;28;20033;-76
2022/11/08 03:19:40;;;;;;;5.65;1.38;;;;;;;10.56;100.00;100351.63;5222393;28;20029;-76
2022/11/08 03:22:10;;;;;;;19.27;8.27;;;;;;;10.46;100.00;100347.66;5222976;28;20028;-76
2022/11/08 03:24:41;;;;;;;11.77;3.35;;;;;;;10.36;100.00;100356.75;5222990;28;20056;-77
2022/11/08 03:27:14;;;;;;;5.50;1.20;;;;;;;10.31;100.00;100358.72;5221764;28;20045;-75
2022/11/08 03:29:47;;;;;;;4.97;1.30;;;;;;;10.18;100.00;100360.06;5221737;28;20446;-77
2022/11/08 03:32:17;;;;;;;4.72;1.13;;;;;;;10.03;100.00;100353.63;5222725;28;20029;-76
2022/11/08 03:34:48;;;;;;;7.03;1.40;;;;;;;9.94;100.00;100348.75;5222855;28;20040;-77
2022/11/08 03:37:18;;;;;;;7.03;1.50;;;;;;;9.82;100.00;100358.78;5222071;28;20167;-76
2022/11/08 03:39:48;;;;;;;7.03;1.30;;;;;;;9.69;100.00;100347.91;5222499;28;20418;-77
2022/11/08 03:42:19;;;;;;;5.63;1.17;;;;;;;9.66;100.00;100349.78;5222184;28;20029;-77
2022/11/08 03:44:49;;;;;;;5.97;1.30;;;;;;;9.71;100.00;100342.63;5222964;28;20025;-77
2022/11/08 03:47:19;;;;;;;4.13;1.35;;;;;;;9.86;100.00;100355.16;5221770;28;20025;-77
2022/11/08 03:49:50;;;;;;;5.22;1.40;;;;;;;9.86;100.00;100348.16;5221518;28;20486;-77
2022/11/08 03:52:20;;;;;;;5.47;1.58;;;;;;;9.77;100.00;100340.66;5221130;28;20108;-77
2022/11/08 03:54:50;;;;;;;7.05;1.50;;;;;;;9.61;100.00;100349.06;5221062;28;20044;-76
2022/11/08 03:57:21;;;;;;;6.72;1.30;;;;;;;9.63;100.00;100345.53;5220596;28;20044;-77
2022/11/08 03:59:51;;;;;;;3.80;1.63;;;;;;;9.63;100.00;100336.84;5221252;28;20090;-77
2022/11/08 04:02:21;;;;;;;6.88;1.40;;;;;;;9.64;100.00;100343.78;5219436;28;20037;-77
2022/11/08 04:04:51;;;;;;;5.90;1.42;;;;;;;9.64;100.00;100346.38;5221246;28;20167;-77
2022/11/08 04:07:22;;;;;;;3.63;1.07;;;;;;;9.54;100.00;100340.66;5220153;28;20028;-76
2022/11/08 04:09:52;;;;;;;4.72;1.42;;;;;;;9.56;100.00;100340.56;5220821;28;20351;-77
2022/11/08 04:15:14;;;;;;;8.20;1.23;;;;;;;9.38;100.00;100342.09;5218285;28;20052;-77
2022/11/08 04:23:36;;;;;;;10.18;1.42;;;;;;;9.28;100.00;100332.03;5217818;28;20398;-77
2022/11/08 04:26:10;;;;;;;4.82;1.63;;;;;;;9.29;100.00;100336.31;5220900;28;20036;-77
2022/11/08 04:28:41;;;;;;;8.80;1.70;;;;;;;9.33;100.00;100335.31;5220751;28;20020;-77
2022/11/08 04:31:17;;;;;;;5.15;1.48;;;;;;;9.31;100.00;100330.13;5219541;28;20025;-76
2022/11/08 04:33:47;;;;;;;7.88;1.83;;;;;;;9.32;100.00;100325.78;5220132;28;20265;-77
2022/11/08 04:36:18;;;;;;;5.72;1.55;;;;;;;9.26;100.00;100333.81;5218737;28;20510;-77
2022/11/08 04:38:50;;;;;;;4.68;1.48;;;;;;;9.03;100.00;100330.28;5220082;28;20025;-77
2022/11/08 04:41:23;;;;;;;11.10;1.65;;;;;;;8.85;100.00;100336.06;5221062;28;20425;-77
2022/11/08 04:43:55;;;;;;;8.05;1.58;;;;;;;8.81;100.00;100337.94;5220117;28;20036;-77
2022/11/08 04:46:27;;;;;;;6.18;1.55;;;;;;;8.85;100.00;100336.06;5218647;28;20086;-74
2022/11/08 04:48:59;;;;;;;10.90;2.58;;;;;;;8.83;100.00;100328.31;5182453;28;1104893;-76
2022/11/08 04:51:32;;;;;;;11.18;2.78;;;;;;;8.95;100.00;100330.53;5218835;28;20029;-77
2022/11/08 04:54:03;;;;;;;6.72;1.77;;;;;;;8.93;100.00;100323.66;5216899;28;20020;-77
2022/11/08 04:56:34;;;;;;;7.47;1.90;;;;;;;8.87;100.00;100337.75;5219682;28;20078;-76
2022/11/08 04:59:06;;;;;;;6.28;1.92;;;;;;;8.81;100.00;100337.09;5201918;28;20032;-77
2022/11/08 05:01:36;;;;;;;7.95;1.90;;;;;;;8.85;100.00;100334.34;5220171;28;20039;-77
2022/11/08 05:04:07;;;;;;;7.38;2.08;;;;;;;8.90;100.00;100329.81;5220903;28;20033;-77
2022/11/08 05:06:37;;;;;;;7.53;2.10;;;;;;;8.94;100.00;100327.97;5220314;28;20126;-77
2022/11/08 05:09:08;;;;;;;6.05;1.98;;;;;;;8.95;100.00;100321.84;5220569;28;20295;-77
2022/11/08 05:11:38;;;;;;;4.93;1.70;;;;;;;9.00;100.00;100318.19;5220589;28;20066;-77
2022/11/08 05:14:09;;;;;;;7.90;2.38;;;;;;;8.93;100.00;100321.88;5220768;28;20028;-77
2022/11/08 05:16:39;;;;;;;7.57;2.17;;;;;;;8.84;100.00;100330.03;5221037;28;20029;-77
2022/11/08 05:19:09;;;;;;;6.55;1.52;;;;;;;8.85;100.00;100318.69;5220583;28;20036;-75
2022/11/08 05:24:28;;;;;;;6.78;1.73;;;;;;;8.89;100.00;100315.09;5224230;28;20521;-77
2022/11/08 05:26:59;;;;;;;5.03;1.73;;;;;;;8.84;100.00;100316.13;5223020;28;20033;-76
2022/11/08 05:29:29;;;;;;;7.03;1.85;;;;;;;8.81;100.00;100311.91;5223935;28;20039;-76
2022/11/08 05:31:59;;;;;;;6.45;1.80;;;;;;;8.75;100.00;100316.44;5224526;28;20279;-76
2022/11/08 05:34:29;;;;;;;6.93;1.95;;;;;;;8.75;100.00;100313.84;5224340;28;20040;-77
2022/11/08 05:37:00;;;;;;;7.03;2.03;;;;;;;8.84;100.00;100309.19;5224245;28;20033;-76
2022/11/08 05:39:30;;;;;;;4.95;1.70;;;;;;;8.89;100.00;100304.66;5224514;28;20028;-77
2022/11/08 05:42:00;;;;;;;5.93;1.60;;;;;;;8.92;100.00;100299.34;5224727;28;20112;-77
2022/11/08 05:44:30;;;;;;;6.57;1.70;;;;;;;8.95;100.00;100303.63;5224751;28;20021;-77
2022/11/08 05:47:01;;;;;;;5.57;1.40;;;;;;;8.73;100.00;100311.28;5224377;28;20550;-77
2022/11/08 05:49:31;;;;;;;4.90;1.90;;;;;;;8.63;100.00;100307.28;5224523;28;20078;-76
2022/11/08 05:52:01;;;;;;;8.75;1.90;;;;;;;8.55;100.00;100311.88;5220708;28;20124;-76
2022/11/08 05:54:31;;;;;;;6.32;1.73;;;;;;;8.44;100.00;100310.50;5224079;28;20075;-77
2022/11/08 05:57:02;;;;;;;4.35;1.80;;;;;;;8.40;100.00;100309.72;5224475;28;20059;-76
2022/11/08 05:59:32;;;;;;;7.13;1.90;;;;;;;8.51;100.00;100312.00;5224316;28;20039;-76
2022/11/08 06:02:02;;;;;;;8.52;2.15;;;;;;;8.57;100.00;100311.81;5224225;28;20437;-76
2022/11/08 06:04:33;;;;;;;7.25;2.10;;;;;;;8.76;100.00;100316.38;5224332;28;20033;-77
2022/11/08 06:07:03;;;;;;;10.07;2.25;;;;;;;8.73;100.00;100313.03;5223472;28;20035;-76
2022/11/08 06:09:33;;;;;;;9.55;2.40;;;;;;;8.80;100.00;100315.41;5224050;28;20689;-76
2022/11/08 06:12:04;;;;;;;7.05;1.92;;;;;;;8.76;100.00;100307.72;5223859;28;20394;-77
2022/11/08 06:14:34;;;;;;;6.72;2.00;;;;;;;8.88;100.00;100308.16;5223908;28;20091;-77
2022/11/08 06:17:04;;;;;;;8.70;2.17;;;;;;;8.82;100.00;100308.38;5222280;28;20120;-77
2022/11/08 06:19:34;;;;;;;6.63;2.10;;;;;;;8.83;100.00;100314.44;5223480;28;20060;-77
2022/11/08 06:22:05;;;;;;;9.43;2.13;;;;;;;8.66;100.00;100309.78;5223910;28;20490;-76
2022/11/08 06:24:36;;;;;;;7.97;2.00;;;;;;;8.71;100.00;100313.06;5223718;28;20494;-75
2022/11/08 06:27:06;;;;;;;7.32;2.08;;;;;;;8.72;100.00;100306.13;5217316;28;20041;-77
2022/11/08 06:29:36;;;;;;;7.45;1.88;;;;;;;8.61;100.00;100309.09;5221948;28;20390;-77
2022/11/08 06:32:10;;;;;;;10.55;1.95;;;;;;;8.55;100.00;100316.25;5223043;28;20232;-77
2022/11/08 06:34:40;;;;;;;7.18;2.03;;;;;;;8.64;100.00;100306.38;5219983;28;20025;-77
2022/11/08 06:37:12;;;;;;;3.78;1.77;;;;;;;8.54;100.00;100307.56;5221499;28;20040;-75
2022/11/08 06:39:43;;;;;;;4.43;1.60;;;;;;;8.46;100.00;100306.97;5222264;28;20033;-76
2022/11/08 06:42:13;;;;;;;7.82;2.17;;;;;;;8.50;100.00;100308.56;5220971;28;20036;-76
2022/11/08 06:44:44;;;;;;;8.15;1.80;;;;;;;8.43;100.00;100314.88;5218995;28;20444;-77
2022/11/08 06:47:14;;;;;;;7.18;2.10;;;;;;;8.48;100.00;100307.75;5219072;28;20037;-76
2022/11/08 06:49:44;;;;;;;5.90;1.70;;;;;;;8.55;100.00;100304.06;5219136;28;20112;-77
2022/11/08 06:52:15;;;;;;;8.35;1.98;;;;;;;8.62;100.00;100302.97;5219989;28;20475;-77
2022/11/08 06:54:45;;;;;;;9.20;2.65;;;;;;;8.67;100.00;100308.88;5221242;28;20061;-77
2022/11/08 06:57:15;;;;;;;7.82;2.15;;;;;;;8.70;100.00;100308.78;5221063;28;20029;-77
2022/11/08 06:59:45;;;;;;;5.82;2.10;;;;;;;8.71;100.00;100305.25;5222644;28;20036;-76
2022/11/08 07:02:16;;;;;;;5.35;1.85;;;;;;;8.79;100.00;100313.69;5221689;28;20616;-77
2022/11/08 07:04:46;;;;;;;7.95;2.03;;;;;;;8.85;100.00;100307.41;5222966;28;20060;-77
2022/11/08 07:07:16;;;;;;;10.35;2.15;;;;;;;8.94;100.00;100305.38;5222299;28;20039;-77
2022/11/08 07:09:47;;;;;;;7.30;1.98;;;;;;;9.04;100.00;100303.31;5222449;28;20029;-77
2022/11/08 07:12:17;;;;;;;6.15;1.98;;;;;;;9.14;100.00;100306.41;5223056;28;20060;-77
2022/11/08 07:14:47;;;;;;;8.00;2.33;;;;;;;9.24;100.00;100296.50;5223296;28;20036;-77
2022/11/08 07:17:17;;;;;;;5.75;1.95;;;;;;;9.41;100.00;100297.63;5222948;28;20124;-77
2022/11/08 07:19:48;;;;;;;4.15;1.80;;;;;;;9.48;100.00;100293.06;5221469;28;20024;-77
2022/11/08 07:22:18;;;;;;;6.45;1.85;;;;;;;9.75;100.00;100290.28;5220850;28;20025;-77
2022/11/08 07:24:48;;;;;;;9.07;2.40;;;;;;;9.96;100.00;100289.50;5223070;28;20070;-76
2022/11/08 07:27:18;;;;;;;9.35;2.08;;;;;;;9.93;100.00;100287.00;5221589;28;20037;-76
2022/11/08 07:29:49;;;;;;;7.35;1.92;;;;;;;9.95;100.00;100294.75;5222956;28;20029;-76
2022/11/08 07:32:19;;;;;;;6.03;1.70;;;;;;;10.04;100.00;100286.63;5221520;28;20112;-77
2022/11/08 07:34:49;;;;;;;5.68;1.85;;;;;;;10.04;100.00;100292.72;5221549;28;20029;-76
2022/11/08 07:37:20;;;;;;;3.75;1.77;;;;;;;10.16;100.00;100289.63;5221619;28;20044;-76
2022/11/08 07:39:50;;;;;;;5.75;1.95;;;;;;;10.19;100.00;100286.03;5222809;28;20100;-76
2022/11/08 07:42:20;;;;;;;7.10;1.90;;;;;;;10.48;100.00;100288.38;5222797;28;21005;-77
2022/11/08 07:44:50;;;;;;;7.72;1.90;;;;;;;10.84;100.00;100286.88;5222845;28;20688;-76
2022/11/08 07:47:21;;;;;;;9.00;1.77;;;;;;;10.99;100.00;100283.63;5221577;28;20445;-77
2022/11/08 07:49:51;;;;;;;4.57;1.42;;;;;;;11.76;100.00;100282.81;5221680;28;20781;-77
2022/11/08 07:52:21;;;;;;;5.07;1.50;;;;;;;12.79;100.00;100281.41;5222142;28;20055;-76
2022/11/08 07:54:51;;;;;;;3.08;1.27;;;;;;;14.34;97.09;100269.63;5222680;28;20029;-76
2022/11/08 07:57:22;;;;;;;5.22;1.40;;;;;;;15.03;88.68;100272.56;5222506;28;20025;-76
2022/11/08 07:59:52;;;;;;;7.60;1.55;;;;;;;15.37;89.50;100272.28;5221147;28;20087;-76
2022/11/08 08:02:22;;;;;;;7.25;1.15;;;;;;;16.55;85.34;100266.59;5221777;28;20439;-77
2022/11/08 08:04:53;;;;;;;5.65;1.35;;;;;;;16.36;83.93;100263.44;5221893;28;20025;-77
2022/11/08 08:07:23;;;;;;;3.85;1.42;;;;;;;16.26;85.60;100269.38;5221310;28;20124;-77
2022/11/08 08:09:53;;;;;;;4.95;1.42;;;;;;;16.59;83.02;100260.16;5219931;28;20033;-76
2022/11/08 08:12:24;;;;;;;7.05;1.40;;;;;;;16.30;84.46;100271.72;5220645;28;20033;-77
2022/11/08 08:14:54;;;;;;;4.93;1.27;;;;;;;16.31;84.05;100265.50;5221814;28;20035;-76
2022/11/08 08:17:24;;;;;;;4.87;1.40;;;;;;;16.16;84.93;100263.81;5221475;28;20317;-77
2022/11/08 08:19:54;;;;;;;3.53;1.30;;;;;;;16.24;84.58;100264.19;5221275;28;20283;-77
2022/11/08 08:22:25;;;;;;;4.70;1.20;;;;;;;15.29;89.92;100257.88;5221482;28;20070;-77
2022/11/08 08:24:55;;;;;;;6.50;1.48;;;;;;;15.09;90.26;100253.78;5221537;28;20281;-76
2022/11/08 08:27:25;;;;;;;4.77;1.10;;;;;;;14.81;90.78;100246.75;5220930;28;20029;-77
2022/11/08 08:29:55;;;;;;;5.35;1.35;;;;;;;14.65;91.75;100241.53;5220106;28;20272;-77
2022/11/08 08:32:26;;;;;;;5.07;1.45;;;;;;;14.08;93.97;100244.75;5220528;28;20265;-76
2022/11/08 08:34:56;;;;;;;3.95;1.15;;;;;;;13.91;96.31;100238.72;5220364;28;20579;-76
2022/11/08 08:37:27;;;;;;;4.77;1.20;;;;;;;13.79;98.31;100231.50;5221236;28;20020;-76
2022/11/08 08:39:57;;;;;;;4.20;1.40;;;;;;;13.45;100.00;100232.47;5221314;28;20275;-77
2022/11/08 08:42:27;;;;;;;4.93;1.40;;;;;;;13.14;100.00;100235.00;5221851;28;20032;-76
2022/11/08 08:44:58;;;;;;;5.47;1.40;;;;;;;12.93;100.00;100229.13;5221919;28;20082;-76
2022/11/08 08:47:28;;;;;;;5.18;1.65;;;;;;;12.84;100.00;100224.31;5220910;28;20045;-76
2022/11/08 08:49:58;;;;;;;8.32;1.60;;;;;;;12.90;100.00;100211.75;5221209;28;20032;-76
2022/11/08 08:52:28;;;;;;;6.20;1.60;;;;;;;13.07;100.00;100207.34;5221616;28;20060;-77
2022/11/08 08:54:59;;;;;;;4.88;1.48;;;;;;;13.41;100.00;100211.72;5221281;28;20271;-76
2022/11/08 08:57:29;;;;;;;6.97;1.40;;;;;;;13.63;100.00;100201.75;5221338;28;20428;-76
2022/11/08 08:59:59;;;;;;;7.05;1.50;;;;;;;13.73;100.00;100201.16;5220688;28;20687;-76
2022/11/08 09:02:29;;;;;;;6.03;1.77;;;;;;;13.89;100.00;100201.19;5221186;28;20254;-76
2022/11/08 09:05:00;;;;;;;5.88;1.67;;;;;;;14.01;100.00;100200.50;5219900;28;20032;-76
2022/11/08 09:07:30;;;;;;;6.72;1.33;;;;;;;14.07;100.00;100182.59;5220752;28;20443;-77
2022/11/08 09:10:00;;;;;;;5.55;1.42;;;;;;;14.02;100.00;100181.16;5221269;28;20037;-77
2022/11/08 09:12:31;;;;;;;6.68;1.67;;;;;;;13.92;100.00;100180.00;5220618;28;20114;-77
2022/11/08 09:15:03;;;;;;;7.22;1.80;;;;;;;14.03;100.00;100177.59;5221256;28;20123;-76
2022/11/08 09:17:33;;;;;;;4.85;1.45;;;;;;;13.85;100.00;100178.63;5216289;28;20052;-77
2022/11/08 09:20:04;;;;;;;8.15;1.58;;;;;;;13.83;100.00;100173.47;5220716;28;20036;-77
2022/11/08 09:22:34;;;;;;;5.88;1.50;;;;;;;14.02;100.00;100168.03;5221033;28;20536;-77
2022/11/08 09:25:05;;;;;;;4.97;1.30;;;;;;;13.99;100.00;100147.19;5220700;28;20028;-76
2022/11/08 09:27:36;;;;;;;5.70;1.20;;;;;;;13.92;100.00;100162.44;5218115;28;20103;-76
2022/11/08 09:30:07;;;;;;;7.20;1.23;;;;;;;14.07;100.00;100160.75;5219954;28;20039;-77
2022/11/08 09:32:37;;;;;;;7.80;1.60;;;;;;;13.96;100.00;100155.25;5220982;28;20033;-77
2022/11/08 09:35:07;;;;;;;7.28;1.83;;;;;;;14.04;100.00;100150.41;5217193;28;20043;-76
2022/11/08 09:37:38;;;;;;;7.20;1.60;;;;;;;14.00;100.00;100149.75;5221913;28;20048;-77
2022/11/08 09:40:22;;;;;;;5.28;1.20;;;;;;;13.99;100.00;100150.69;5221173;28;20053;-77
2022/11/08 09:43:23;;;;;;;4.80;1.38;;;;;;;14.01;100.00;100148.81;5221043;28;20029;-77
2022/11/08 09:45:56;;;;;;;6.10;1.48;;;;;;;14.07;100.00;100155.50;5219493;28;20523;-77
2022/11/08 09:48:41;;;;;;;6.35;1.70;;;;;;;14.03;100.00;100156.59;5218627;28;20035;-77
2022/11/08 09:51:15;;;;;;;5.07;1.20;;;;;;;14.04;100.00;100166.16;5217677;28;20033;-75
2022/11/08 09:53:53;;;;;;;5.18;1.58;;;;;;;13.99;100.00;100161.19;5219896;28;20029;-76
2022/11/08 09:56:34;;;;;;;5.05;1.30;;;;;;;13.92;100.00;100161.63;5220313;28;20017;-76
2022/11/08 09:59:36;;;;;;;5.32;1.30;;;;;;;13.70;100.00;100156.69;5216768;28;20060;-76
2022/11/08 10:02:16;;;;;;;5.05;1.45;;;;;;;13.75;100.00;100151.19;5217392;28;20497;-76
2022/11/08 10:04:59;;;;;;;6.90;1.40;;;;;;;13.67;100.00;100143.72;5220512;28;20060;-77
2022/11/08 10:07:48;;;;;;;8.90;1.35;;;;;;;13.53;100.00;100140.16;5219882;28;20059;-77
2022/11/08 10:10:33;;;;;;;8.98;1.60;;;;;;;13.83;100.00;100146.34;5221725;28;20028;-77
2022/11/08 10:13:04;;;;;;;6.90;1.20;;;;;;;14.10;100.00;100145.63;5220286;28;20115;-76
2022/11/08 10:15:45;;;;;;;6.38;2.08;;;;;;;14.14;100.00;100147.19;5224737;28;20071;-76
2022/11/08 10:18:30;;;;;;;11.45;1.50;;;;;;;14.40;100.00;100143.09;5223877;28;20108;-76
2022/11/08 10:21:14;;;;;;;8.00;1.30;;;;;;;14.31;98.78;100148.88;5224831;28;20029;-76
2022/11/08 10:23:53;;;;;;;3.88;1.20;;;;;;;14.51;99.31;100140.66;5221587;28;20661;-76
2022/11/08 10:26:32;;;;;;;5.45;1.23;;;;;;;14.50;99.97;100137.22;5222674;28;20074;-76
2022/11/08 10:29:13;;;;;;;13.77;1.55;;;;;;;14.65;100.00;100146.84;5220318;28;20028;-77
2022/11/08 10:31:46;;;;;;;6.72;1.20;;;;;;;14.56;98.48;100128.13;5222945;28;20047;-76
2022/11/08 10:34:22;;;;;;;4.45;1.08;;;;;;;14.38;98.37;100130.03;5221859;28;20025;-77
2022/11/08 10:37:01;;;;;;;6.35;1.15;;;;;;;14.43;100.00;100127.13;5222925;28;20044;-76
2022/11/08 10:39:41;;;;;;;4.38;0.98;;;;;;;14.38;99.29;100119.50;5223547;28;20020;-77
2022/11/08 10:42:22;;;;;;;4.53;1.30;;;;;;;14.33;100.00;100118.06;5220662;28;20051;-77
2022/11/08 10:44:53;;;;;;;3.72;1.30;;;;;;;14.40;99.58;100116.81;5223044;28;20021;-77
2022/11/08 10:47:25;;;;;;;6.15;1.42;;;;;;;14.54;99.80;100114.19;5222660;28;20032;-76
2022/11/08 10:49:56;;;;;;;3.63;1.10;;;;;;;14.72;97.88;100102.56;5224619;28;20040;-77
2022/11/08 10:52:32;;;;;;;3.33;0.90;;;;;;;14.92;96.30;100103.06;5222585;28;20028;-77
2022/11/08 10:55:07;;;;;;;4.80;0.98;;;;;;;15.05;96.30;100090.88;5217990;28;20032;-77
2022/11/08 10:57:42;;;;;;;4.13;0.95;;;;;;;15.33;92.58;100091.72;5222788;28;20025;-76
2022/11/08 11:00:15;;;;;;;3.90;1.00;;;;;;;15.58;90.74;100080.50;5222449;28;20503;-76
2022/11/08 11:02:52;;;;;;;4.68;1.20;;;;;;;15.71;89.75;100074.34;5222311;28;20553;-77
2022/11/08 11:05:27;;;;;;;5.25;1.00;;;;;;;15.87;87.18;100072.41;5222786;28;20067;-77
2022/11/08 11:08:11;;;;;;;3.83;1.00;;;;;;;16.02;87.96;100063.50;5221867;28;20561;-77
2022/11/08 11:10:44;;;;;;;3.50;0.70;;;;;;;16.11;85.47;100047.09;5222519;28;20524;-77
2022/11/08 11:13:17;;;;;;;5.80;1.00;;;;;;;16.21;81.86;100050.78;5222579;28;20091;-76
2022/11/08 11:15:47;;;;;;;2.72;0.82;;;;;;;16.26;80.59;100043.44;5222744;28;20497;-77
2022/11/08 11:18:23;;;;;;;2.45;0.75;;;;;;;16.30;77.77;100044.03;5222099;28;20090;-77
2022/11/08 11:21:12;;;;;;;2.90;0.85;;;;;;;16.41;81.13;100044.22;5220333;28;20044;-76
2022/11/08 11:23:51;;;;;;;2.50;0.80;;;;;;;16.36;81.76;100044.50;5222582;28;20028;-76
2022/11/08 11:26:30;;;;;;;2.13;0.90;;;;;;;16.45;82.93;100043.91;5217362;28;20805;-75
2022/11/08 11:29:06;;;;;;;2.38;0.70;;;;;;;16.40;82.23;100051.25;5214169;28;20047;-75
2022/11/08 11:31:42;;;;;;;4.43;0.98;;;;;;;16.27;83.53;100045.13;5207747;28;20033;-76
2022/11/08 11:34:15;;;;;;;2.00;0.60;;;;;;;16.40;79.26;100042.53;5211962;28;20041;-76
2022/11/08 11:37:11;;;;;;;2.55;0.80;;;;;;;16.42;81.32;100038.81;5212526;28;20082;-76
2022/11/08 11:40:02;;;;;;;2.15;0.65;;;;;;;16.54;79.44;100047.72;5219801;28;20020;-76
2022/11/08 11:42:56;;;;;;;2.92;0.95;;;;;;;16.58;80.19;100034.19;5203112;28;20025;-76
2022/11/08 11:45:38;;;;;;;2.78;0.95;;;;;;;16.69;82.18;100041.38;5222161;28;20055;-77
2022/11/08 11:48:15;;;;;;;2.63;0.75;;;;;;;16.53;80.34;100040.75;5217939;28;20040;-77
2022/11/08 11:50:48;;;;;;;3.25;1.00;;;;;;;16.48;78.66;100043.69;5218671;28;20146;-77
2022/11/08 11:53:37;;;;;;;1.92;0.63;;;;;;;16.34;78.61;100029.69;5220794;28;20115;-77
2022/11/08 11:56:26;;;;;;;2.92;0.70;;;;;;;16.21;78.35;100028.84;5220351;28;20071;-76
2022/11/08 11:59:23;;;;;;;2.70;0.82;;;;;;;16.10;80.57;100032.22;5220332;28;20093;-76
2022/11/08 12:02:24;;;;;;;3.53;0.70;;;;;;;16.07;79.91;100040.31;5221124;28;20039;-76
2022/11/08 12:05:23;;;;;;;2.92;0.80;;;;;;;15.96;79.28;100048.09;5220387;28;20036;-76
2022/11/08 12:07:57;;;;;;;2.40;0.85;;;;;;;15.91;80.64;100047.53;5219689;28;20020;-77